createdAt,value
2018-11-13T00:00:08.969Z,927.58
2018-11-13T00:00:21.916Z,927.6
2018-11-13T00:00:34.445Z,927.58
2018-11-13T00:00:46.976Z,927.62
2018-11-13T00:00:59.967Z,927.63
2018-11-13T00:01:12.468Z,927.58
2018-11-13T00:01:25.428Z,927.59
2018-11-13T00:01:38.439Z,927.54
2018-11-13T00:01:51.411Z,927.61
2018-11-13T00:02:04.406Z,927.62
2018-11-13T00:02:17.363Z,927.61
2018-11-13T00:02:29.832Z,927.61
2018-11-13T00:02:41.872Z,927.63
2018-11-13T00:02:54.877Z,927.6
2018-11-13T00:03:07.409Z,927.64
2018-11-13T00:03:20.363Z,927.6
2018-11-13T00:03:33.286Z,927.63
2018-11-13T00:03:45.782Z,927.63
2018-11-13T00:03:58.831Z,927.63
2018-11-13T00:04:11.428Z,927.64
2018-11-13T00:04:24.400Z,927.63
2018-11-13T00:04:37.374Z,927.64
2018-11-13T00:04:49.997Z,927.61
2018-11-13T00:05:02.013Z,927.67
2018-11-13T00:05:14.106Z,927.66
2018-11-13T00:05:26.603Z,927.63
2018-11-13T00:05:39.082Z,927.66
2018-11-13T00:05:51.143Z,927.66
2018-11-13T00:06:02.772Z,927.65
2018-11-13T00:06:15.788Z,927.68
2018-11-13T00:06:28.278Z,927.67
2018-11-13T00:06:40.792Z,927.67
2018-11-13T00:06:53.796Z,927.68
2018-11-13T00:07:06.330Z,927.67
2018-11-13T00:07:19.337Z,927.69
2018-11-13T00:07:32.293Z,927.7
2018-11-13T00:07:45.296Z,927.7
2018-11-13T00:07:58.303Z,927.69
2018-11-13T00:08:10.330Z,927.7
2018-11-13T00:08:22.808Z,927.67
2018-11-13T00:08:35.740Z,927.68
2018-11-13T00:08:48.742Z,927.67
2018-11-13T00:09:01.248Z,927.69
2018-11-13T00:09:13.802Z,927.73
2018-11-13T00:09:26.861Z,927.71
2018-11-13T00:09:39.826Z,927.71
2018-11-13T00:09:53.128Z,927.75
2018-11-13T00:10:05.145Z,927.72
2018-11-13T00:10:17.180Z,927.75
2018-11-13T00:10:29.692Z,927.72
2018-11-13T00:10:42.147Z,927.74
2018-11-13T00:10:54.163Z,927.75
2018-11-13T00:11:07.170Z,927.75
2018-11-13T00:11:19.920Z,927.72
2018-11-13T00:11:33.636Z,927.76
2018-11-13T00:11:46.364Z,927.77
2018-11-13T00:11:58.854Z,927.8
2018-11-13T00:12:11.852Z,927.78
2018-11-13T00:12:24.851Z,927.76
2018-11-13T00:12:36.897Z,927.77
2018-11-13T00:12:49.803Z,927.75
2018-11-13T00:13:02.308Z,927.73
2018-11-13T00:13:14.362Z,927.74
2018-11-13T00:13:27.305Z,927.75
2018-11-13T00:13:40.285Z,927.75
2018-11-13T00:13:53.255Z,927.71
2018-11-13T00:14:04.824Z,927.75
2018-11-13T00:14:17.321Z,927.75
2018-11-13T00:14:30.346Z,927.74
2018-11-13T00:14:43.293Z,927.74
2018-11-13T00:14:56.129Z,927.76
2018-11-13T00:15:09.127Z,927.75
2018-11-13T00:15:22.091Z,927.73
2018-11-13T00:15:35.048Z,927.78
2018-11-13T00:15:47.504Z,927.77
2018-11-13T00:15:59.623Z,927.75
2018-11-13T00:16:10.769Z,927.73
2018-11-13T00:16:23.325Z,927.77
2018-11-13T00:16:36.411Z,927.75
2018-11-13T00:16:48.442Z,927.79
2018-11-13T00:17:01.011Z,927.77
2018-11-13T00:17:13.553Z,927.78
2018-11-13T00:17:26.115Z,927.8
2018-11-13T00:17:39.098Z,927.8
2018-11-13T00:17:52.107Z,927.82
2018-11-13T00:18:05.119Z,927.79
2018-11-13T00:18:17.646Z,927.8
2018-11-13T00:18:30.654Z,927.83
2018-11-13T00:18:43.162Z,927.82
2018-11-13T00:18:55.643Z,927.82
2018-11-13T00:19:08.619Z,927.84
2018-11-13T00:19:21.569Z,927.81
2018-11-13T00:19:34.117Z,927.86
2018-11-13T00:19:47.093Z,927.84
2018-11-13T00:20:00.053Z,927.83
2018-11-13T00:20:12.083Z,927.82
2018-11-13T00:20:24.609Z,927.83
2018-11-13T00:20:37.622Z,927.81
2018-11-13T00:20:49.714Z,927.86
2018-11-13T00:21:02.718Z,927.86
2018-11-13T00:21:15.210Z,927.81
2018-11-13T00:21:27.701Z,927.8
2018-11-13T00:21:40.216Z,927.8
2018-11-13T00:21:52.759Z,927.81
2018-11-13T00:22:05.283Z,927.79
2018-11-13T00:22:17.776Z,927.79
2018-11-13T00:22:30.244Z,927.8
2018-11-13T00:22:43.208Z,927.81
2018-11-13T00:22:55.745Z,927.8
2018-11-13T00:23:08.738Z,927.82
2018-11-13T00:23:21.265Z,927.82
2018-11-13T00:23:34.245Z,927.8
2018-11-13T00:23:46.266Z,927.78
2018-11-13T00:23:58.923Z,927.82
2018-11-13T00:24:10.184Z,927.82
2018-11-13T00:24:22.696Z,927.77
2018-11-13T00:24:34.258Z,927.77
2018-11-13T00:24:46.727Z,927.79
2018-11-13T00:24:59.395Z,927.79
2018-11-13T00:25:12.444Z,927.82
2018-11-13T00:25:24.867Z,927.8
2018-11-13T00:25:37.864Z,927.73
2018-11-13T00:25:49.875Z,927.83
2018-11-13T00:26:02.809Z,927.78
2018-11-13T00:26:15.293Z,927.75
2018-11-13T00:26:27.837Z,927.78
2018-11-13T00:26:40.313Z,927.79
2018-11-13T00:26:53.289Z,927.79
2018-11-13T00:27:05.806Z,927.77
2018-11-13T00:27:18.861Z,927.78
2018-11-13T00:27:31.533Z,927.77
2018-11-13T00:27:45.242Z,927.79
2018-11-13T00:27:58.234Z,927.77
2018-11-13T00:28:11.182Z,927.76
2018-11-13T00:28:24.156Z,927.8
2018-11-13T00:28:37.473Z,927.78
2018-11-13T00:28:49.940Z,927.81
2018-11-13T00:29:02.429Z,927.77
2018-11-13T00:29:15.457Z,927.81
2018-11-13T00:29:27.702Z,927.84
2018-11-13T00:29:41.424Z,927.79
2018-11-13T00:29:54.360Z,927.85
2018-11-13T00:30:06.896Z,927.81
2018-11-13T00:30:18.969Z,927.8
2018-11-13T00:30:31.238Z,927.82
2018-11-13T00:30:44.257Z,927.77
2018-11-13T00:30:55.878Z,927.78
2018-11-13T00:31:08.498Z,927.79
2018-11-13T00:31:21.432Z,927.81
2018-11-13T00:31:34.448Z,927.81
2018-11-13T00:31:47.427Z,927.83
2018-11-13T00:31:59.947Z,927.8
2018-11-13T00:32:11.968Z,927.84
2018-11-13T00:32:24.923Z,927.8
2018-11-13T00:32:37.435Z,927.8
2018-11-13T00:32:50.470Z,927.86
2018-11-13T00:33:02.966Z,927.83
2018-11-13T00:33:15.971Z,927.79
2018-11-13T00:33:27.996Z,927.79
2018-11-13T00:33:40.502Z,927.8
2018-11-13T00:33:52.075Z,927.8
2018-11-13T00:34:05.047Z,927.8
2018-11-13T00:34:17.511Z,927.82
2018-11-13T00:34:30.491Z,927.83
2018-11-13T00:34:43.438Z,927.85
2018-11-13T00:34:55.968Z,927.81
2018-11-13T00:35:08.598Z,927.81
2018-11-13T00:35:20.667Z,927.83
2018-11-13T00:35:33.241Z,927.8
2018-11-13T00:35:46.281Z,927.79
2018-11-13T00:35:59.205Z,927.81
2018-11-13T00:36:11.718Z,927.78
2018-11-13T00:36:24.685Z,927.82
2018-11-13T00:36:37.727Z,927.76
2018-11-13T00:36:49.773Z,927.77
2018-11-13T00:37:01.852Z,927.79
2018-11-13T00:37:14.376Z,927.75
2018-11-13T00:37:26.888Z,927.78
2018-11-13T00:37:39.817Z,927.79
2018-11-13T00:37:52.797Z,927.77
2018-11-13T00:38:05.340Z,927.77
2018-11-13T00:38:17.409Z,927.73
2018-11-13T00:38:30.407Z,927.73
2018-11-13T00:38:43.397Z,927.76
2018-11-13T00:38:56.309Z,927.75
2018-11-13T00:39:08.428Z,927.76
2018-11-13T00:39:21.330Z,927.73
2018-11-13T00:39:33.906Z,927.76
2018-11-13T00:39:47.007Z,927.74
2018-11-13T00:39:59.557Z,927.76
2018-11-13T00:40:12.276Z,927.78
2018-11-13T00:40:24.952Z,927.78
2018-11-13T00:40:37.986Z,927.78
2018-11-13T00:40:50.495Z,927.78
2018-11-13T00:41:03.020Z,927.78
2018-11-13T00:41:15.916Z,927.78
2018-11-13T00:41:28.427Z,927.76
2018-11-13T00:41:40.941Z,927.79
2018-11-13T00:41:53.882Z,927.74
2018-11-13T00:42:07.124Z,927.75
2018-11-13T00:42:20.101Z,927.77
2018-11-13T00:42:32.580Z,927.8
2018-11-13T00:42:45.089Z,927.73
2018-11-13T00:42:57.599Z,927.76
2018-11-13T00:43:10.060Z,927.74
2018-11-13T00:43:22.609Z,927.8
2018-11-13T00:43:35.179Z,927.72
2018-11-13T00:43:47.718Z,927.74
2018-11-13T00:44:00.706Z,927.76
2018-11-13T00:44:13.181Z,927.82
2018-11-13T00:44:25.235Z,927.85
2018-11-13T00:44:38.168Z,927.82
2018-11-13T00:44:50.728Z,927.82
2018-11-13T00:45:03.982Z,927.75
2018-11-13T00:45:16.713Z,927.8
2018-11-13T00:45:30.293Z,927.77
2018-11-13T00:45:44.550Z,927.8
2018-11-13T00:45:57.757Z,927.8
2018-11-13T00:46:10.600Z,927.8
2018-11-13T00:46:23.580Z,927.78
2018-11-13T00:46:36.096Z,927.79
2018-11-13T00:46:49.108Z,927.76
2018-11-13T00:47:01.672Z,927.75
2018-11-13T00:47:14.657Z,927.78
2018-11-13T00:47:27.153Z,927.77
2018-11-13T00:47:40.168Z,927.83
2018-11-13T00:47:53.173Z,927.83
2018-11-13T00:48:06.126Z,927.73
2018-11-13T00:48:19.406Z,927.78
2018-11-13T00:48:33.097Z,927.77
2018-11-13T00:48:45.613Z,927.81
2018-11-13T00:48:58.571Z,927.82
2018-11-13T00:49:11.742Z,927.82
2018-11-13T00:49:25.574Z,927.75
2018-11-13T00:49:37.725Z,927.78
2018-11-13T00:49:50.693Z,927.8
2018-11-13T00:50:03.192Z,927.81
2018-11-13T00:50:15.542Z,927.78
2018-11-13T00:50:28.637Z,927.71
2018-11-13T00:50:41.289Z,927.78
2018-11-13T00:50:55.044Z,927.74
2018-11-13T00:51:07.810Z,927.75
2018-11-13T00:51:20.334Z,927.74
2018-11-13T00:51:32.864Z,927.75
2018-11-13T00:51:44.931Z,927.74
2018-11-13T00:51:57.903Z,927.75
2018-11-13T00:52:09.945Z,927.74
2018-11-13T00:52:22.458Z,927.74
2018-11-13T00:52:35.537Z,927.73
2018-11-13T00:52:48.022Z,927.73
2018-11-13T00:53:00.972Z,927.74
2018-11-13T00:53:13.573Z,927.74
2018-11-13T00:53:26.094Z,927.7
2018-11-13T00:53:39.066Z,927.7
2018-11-13T00:53:51.559Z,927.68
2018-11-13T00:54:04.543Z,927.72
2018-11-13T00:54:17.030Z,927.71
2018-11-13T00:54:29.063Z,927.71
2018-11-13T00:54:41.598Z,927.7
2018-11-13T00:54:54.317Z,927.73
2018-11-13T00:55:07.929Z,927.75
2018-11-13T00:55:21.230Z,927.74
2018-11-13T00:55:34.320Z,927.71
2018-11-13T00:55:46.872Z,927.72
2018-11-13T00:55:59.884Z,927.7
2018-11-13T00:56:12.413Z,927.73
2018-11-13T00:56:25.393Z,927.73
2018-11-13T00:56:38.369Z,927.7
2018-11-13T00:56:51.695Z,927.72
2018-11-13T00:57:04.299Z,927.71
2018-11-13T00:57:17.604Z,927.72
2018-11-13T00:57:30.555Z,927.67
2018-11-13T00:57:43.592Z,927.72
2018-11-13T00:57:56.793Z,927.63
2018-11-13T00:58:09.718Z,927.72
2018-11-13T00:58:21.826Z,927.69
2018-11-13T00:58:34.805Z,927.7
2018-11-13T00:58:47.812Z,927.7
2018-11-13T00:59:00.818Z,927.71
2018-11-13T00:59:13.924Z,927.67
2018-11-13T00:59:26.778Z,927.7
2018-11-13T00:59:40.208Z,927.73
2018-11-13T00:59:52.210Z,927.71
2018-11-13T01:00:04.766Z,927.73
2018-11-13T01:00:18.152Z,927.71
2018-11-13T01:00:31.001Z,927.77
2018-11-13T01:00:44.126Z,927.69
2018-11-13T01:00:58.066Z,927.71
2018-11-13T01:01:11.094Z,927.7
2018-11-13T01:01:23.572Z,927.72
2018-11-13T01:01:36.576Z,927.7
2018-11-13T01:01:49.667Z,927.68
2018-11-13T01:02:01.909Z,927.66
2018-11-13T01:02:14.142Z,927.69
2018-11-13T01:02:26.606Z,927.71
2018-11-13T01:02:39.553Z,927.79
2018-11-13T01:02:52.025Z,927.71
2018-11-13T01:03:04.231Z,927.72
2018-11-13T01:03:16.747Z,927.72
2018-11-13T01:03:28.821Z,927.69
2018-11-13T01:03:41.861Z,927.71
2018-11-13T01:03:52.963Z,927.71
2018-11-13T01:04:05.413Z,927.69
2018-11-13T01:04:18.429Z,927.66
2018-11-13T01:04:30.973Z,927.65
2018-11-13T01:04:43.055Z,927.68
2018-11-13T01:04:56.102Z,927.68
2018-11-13T01:05:08.996Z,927.68
2018-11-13T01:05:22.272Z,927.67
2018-11-13T01:05:35.523Z,927.68
2018-11-13T01:05:48.810Z,927.72
2018-11-13T01:06:02.290Z,927.71
2018-11-13T01:06:14.827Z,927.7
2018-11-13T01:06:27.802Z,927.69
2018-11-13T01:06:40.304Z,927.68
2018-11-13T01:06:52.805Z,927.66
2018-11-13T01:07:04.840Z,927.65
2018-11-13T01:07:17.817Z,927.69
2018-11-13T01:07:30.826Z,927.65
2018-11-13T01:07:43.155Z,927.67
2018-11-13T01:07:55.533Z,927.66
2018-11-13T01:08:07.549Z,927.7
2018-11-13T01:08:20.033Z,927.7
2018-11-13T01:08:32.058Z,927.67
2018-11-13T01:08:44.528Z,927.68
2018-11-13T01:08:57.043Z,927.68
2018-11-13T01:09:08.622Z,927.67
2018-11-13T01:09:21.622Z,927.64
2018-11-13T01:09:33.199Z,927.64
2018-11-13T01:09:45.680Z,927.64
2018-11-13T01:09:58.619Z,927.67
2018-11-13T01:10:10.735Z,927.67
2018-11-13T01:10:24.025Z,927.68
2018-11-13T01:10:36.999Z,927.65
2018-11-13T01:10:49.033Z,927.62
2018-11-13T01:11:01.530Z,927.63
2018-11-13T01:11:14.045Z,927.65
2018-11-13T01:11:27.046Z,927.62
2018-11-13T01:11:38.639Z,927.63
2018-11-13T01:11:52.133Z,927.6
2018-11-13T01:12:05.401Z,927.6
2018-11-13T01:12:17.878Z,927.63
2018-11-13T01:12:29.512Z,927.61
2018-11-13T01:12:42.069Z,927.63
2018-11-13T01:12:54.647Z,927.65
2018-11-13T01:13:07.633Z,927.63
2018-11-13T01:13:20.620Z,927.63
2018-11-13T01:13:32.699Z,927.64
2018-11-13T01:13:45.680Z,927.62
2018-11-13T01:13:58.625Z,927.62
2018-11-13T01:14:10.706Z,927.64
2018-11-13T01:14:22.755Z,927.64
2018-11-13T01:14:35.724Z,927.66
2018-11-13T01:14:48.176Z,927.62
2018-11-13T01:15:00.960Z,927.61
2018-11-13T01:15:13.127Z,927.66
2018-11-13T01:15:25.906Z,927.59
2018-11-13T01:15:38.868Z,927.59
2018-11-13T01:15:51.326Z,927.58
2018-11-13T01:16:03.797Z,927.63
2018-11-13T01:16:15.866Z,927.6
2018-11-13T01:16:28.347Z,927.58
2018-11-13T01:16:40.808Z,927.56
2018-11-13T01:16:53.359Z,927.57
2018-11-13T01:17:05.784Z,927.62
2018-11-13T01:17:18.902Z,927.53
2018-11-13T01:17:31.594Z,927.52
2018-11-13T01:17:43.649Z,927.57
2018-11-13T01:17:56.119Z,927.53
2018-11-13T01:18:08.633Z,927.56
2018-11-13T01:18:19.749Z,927.55
2018-11-13T01:18:32.318Z,927.55
2018-11-13T01:18:44.770Z,927.53
2018-11-13T01:18:56.792Z,927.54
2018-11-13T01:19:09.928Z,927.52
2018-11-13T01:19:22.005Z,927.53
2018-11-13T01:19:34.988Z,927.51
2018-11-13T01:19:47.034Z,927.54
2018-11-13T01:20:00.013Z,927.59
2018-11-13T01:20:12.032Z,927.54
2018-11-13T01:20:24.517Z,927.48
2018-11-13T01:20:37.452Z,927.54
2018-11-13T01:20:50.435Z,927.54
2018-11-13T01:21:02.979Z,927.56
2018-11-13T01:21:15.955Z,927.54
2018-11-13T01:21:28.466Z,927.52
2018-11-13T01:21:41.484Z,927.55
2018-11-13T01:21:53.947Z,927.6
2018-11-13T01:22:06.466Z,927.53
2018-11-13T01:22:19.074Z,927.57
2018-11-13T01:22:31.738Z,927.57
2018-11-13T01:22:43.885Z,927.56
2018-11-13T01:22:56.879Z,927.56
2018-11-13T01:23:09.831Z,927.55
2018-11-13T01:23:23.092Z,927.51
2018-11-13T01:23:34.784Z,927.54
2018-11-13T01:23:46.437Z,927.54
2018-11-13T01:23:59.780Z,927.51
2018-11-13T01:24:11.863Z,927.56
2018-11-13T01:24:23.891Z,927.6
2018-11-13T01:24:35.932Z,927.56
2018-11-13T01:24:48.918Z,927.54
2018-11-13T01:25:01.427Z,927.59
2018-11-13T01:25:13.460Z,927.55
2018-11-13T01:25:26.105Z,927.57
2018-11-13T01:25:38.128Z,927.59
2018-11-13T01:25:51.083Z,927.56
2018-11-13T01:26:03.616Z,927.59
2018-11-13T01:26:16.610Z,927.58
2018-11-13T01:26:29.570Z,927.55
2018-11-13T01:26:42.128Z,927.56
2018-11-13T01:26:54.606Z,927.62
2018-11-13T01:27:07.164Z,927.59
2018-11-13T01:27:20.131Z,927.6
2018-11-13T01:27:32.683Z,927.59
2018-11-13T01:27:45.625Z,927.56
2018-11-13T01:27:58.581Z,927.61
2018-11-13T01:28:11.035Z,927.56
2018-11-13T01:28:24.015Z,927.57
2018-11-13T01:28:36.510Z,927.58
2018-11-13T01:28:49.483Z,927.6
2018-11-13T01:29:01.544Z,927.59
2018-11-13T01:29:13.124Z,927.55
2018-11-13T01:29:25.635Z,927.52
2018-11-13T01:29:38.615Z,927.56
2018-11-13T01:29:50.659Z,927.58
2018-11-13T01:30:02.237Z,927.54
2018-11-13T01:30:14.284Z,927.52
2018-11-13T01:30:26.787Z,927.55
2018-11-13T01:30:39.689Z,927.6
2018-11-13T01:30:52.204Z,927.56
2018-11-13T01:31:04.273Z,927.56
2018-11-13T01:31:16.793Z,927.57
2018-11-13T01:31:29.754Z,927.55
2018-11-13T01:31:42.295Z,927.53
2018-11-13T01:31:55.304Z,927.47
2018-11-13T01:32:07.332Z,927.58
2018-11-13T01:32:20.390Z,927.53
2018-11-13T01:32:32.855Z,927.55
2018-11-13T01:32:44.892Z,927.53
2018-11-13T01:32:57.935Z,927.53
2018-11-13T01:33:10.470Z,927.53
2018-11-13T01:33:22.961Z,927.48
2018-11-13T01:33:35.045Z,927.5
2018-11-13T01:33:48.023Z,927.54
2018-11-13T01:34:00.088Z,927.5
2018-11-13T01:34:12.641Z,927.51
2018-11-13T01:34:25.170Z,927.52
2018-11-13T01:34:37.223Z,927.51
2018-11-13T01:34:49.750Z,927.53
2018-11-13T01:35:02.295Z,927.52
2018-11-13T01:35:14.334Z,927.56
2018-11-13T01:35:26.893Z,927.54
2018-11-13T01:35:39.865Z,927.51
2018-11-13T01:35:51.453Z,927.54
2018-11-13T01:36:04.401Z,927.45
2018-11-13T01:36:16.882Z,927.5
2018-11-13T01:36:29.424Z,927.51
2018-11-13T01:36:42.360Z,927.45
2018-11-13T01:36:54.853Z,927.49
2018-11-13T01:37:07.334Z,927.55
2018-11-13T01:37:20.308Z,927.5
2018-11-13T01:37:33.261Z,927.46
2018-11-13T01:37:45.793Z,927.55
2018-11-13T01:37:58.766Z,927.52
2018-11-13T01:38:11.318Z,927.56
2018-11-13T01:38:23.399Z,927.52
2018-11-13T01:38:36.355Z,927.54
2018-11-13T01:38:48.921Z,927.53
2018-11-13T01:39:01.449Z,927.51
2018-11-13T01:39:13.963Z,927.49
2018-11-13T01:39:26.940Z,927.49
2018-11-13T01:39:39.457Z,927.51
2018-11-13T01:39:51.503Z,927.52
2018-11-13T01:40:04.022Z,927.49
2018-11-13T01:40:17.038Z,927.49
2018-11-13T01:40:30.789Z,927.48
2018-11-13T01:40:43.736Z,927.53
2018-11-13T01:40:56.730Z,927.49
2018-11-13T01:41:09.241Z,927.49
2018-11-13T01:41:21.335Z,927.49
2018-11-13T01:41:33.938Z,927.54
2018-11-13T01:41:47.450Z,927.5
2018-11-13T01:41:59.183Z,927.49
2018-11-13T01:42:11.748Z,927.52
2018-11-13T01:42:24.749Z,927.52
2018-11-13T01:42:36.807Z,927.55
2018-11-13T01:42:49.341Z,927.5
2018-11-13T01:43:02.368Z,927.51
2018-11-13T01:43:14.913Z,927.55
2018-11-13T01:43:26.467Z,927.51
2018-11-13T01:43:38.574Z,927.49
2018-11-13T01:43:51.575Z,927.55
2018-11-13T01:44:04.044Z,927.49
2018-11-13T01:44:17.007Z,927.46
2018-11-13T01:44:29.048Z,927.5
2018-11-13T01:44:41.568Z,927.51
2018-11-13T01:44:54.477Z,927.53
2018-11-13T01:45:07.485Z,927.55
2018-11-13T01:45:20.406Z,927.51
2018-11-13T01:45:32.930Z,927.52
2018-11-13T01:45:44.938Z,927.49
2018-11-13T01:45:57.907Z,927.54
2018-11-13T01:46:10.418Z,927.47
2018-11-13T01:46:22.909Z,927.49
2018-11-13T01:46:35.396Z,927.45
2018-11-13T01:46:48.341Z,927.52
2018-11-13T01:47:00.392Z,927.49
2018-11-13T01:47:13.333Z,927.49
2018-11-13T01:47:25.865Z,927.52
2018-11-13T01:47:38.853Z,927.47
2018-11-13T01:47:51.922Z,927.48
2018-11-13T01:48:04.015Z,927.46
2018-11-13T01:48:17.941Z,927.51
2018-11-13T01:48:30.512Z,927.43
2018-11-13T01:48:42.574Z,927.47
2018-11-13T01:48:56.063Z,927.44
2018-11-13T01:49:08.587Z,927.46
2018-11-13T01:49:21.606Z,927.43
2018-11-13T01:49:34.899Z,927.43
2018-11-13T01:49:46.937Z,927.49
2018-11-13T01:49:59.856Z,927.46
2018-11-13T01:50:12.743Z,927.48
2018-11-13T01:50:25.250Z,927.47
2018-11-13T01:50:38.199Z,927.49
2018-11-13T01:50:50.761Z,927.47
2018-11-13T01:51:02.859Z,927.45
2018-11-13T01:51:14.907Z,927.46
2018-11-13T01:51:26.976Z,927.49
2018-11-13T01:51:39.980Z,927.5
2018-11-13T01:51:52.579Z,927.48
2018-11-13T01:52:04.571Z,927.49
2018-11-13T01:52:17.588Z,927.48
2018-11-13T01:52:30.558Z,927.42
2018-11-13T01:52:44.123Z,927.42
2018-11-13T01:52:55.717Z,927.45
2018-11-13T01:53:08.244Z,927.45
2018-11-13T01:53:21.217Z,927.44
2018-11-13T01:53:33.804Z,927.45
2018-11-13T01:53:46.317Z,927.43
2018-11-13T01:53:58.896Z,927.46
2018-11-13T01:54:12.097Z,927.44
2018-11-13T01:54:25.394Z,927.44
2018-11-13T01:54:37.503Z,927.42
2018-11-13T01:54:50.522Z,927.41
2018-11-13T01:55:03.076Z,927.4
2018-11-13T01:55:15.125Z,927.4
2018-11-13T01:55:26.694Z,927.43
2018-11-13T01:55:40.428Z,927.43
2018-11-13T01:55:52.989Z,927.41
2018-11-13T01:56:06.001Z,927.41
2018-11-13T01:56:17.565Z,927.48
2018-11-13T01:56:30.124Z,927.4
2018-11-13T01:56:42.667Z,927.39
2018-11-13T01:56:55.717Z,927.36
2018-11-13T01:57:08.947Z,927.4
2018-11-13T01:57:21.967Z,927.42
2018-11-13T01:57:34.573Z,927.39
2018-11-13T01:57:47.039Z,927.42
2018-11-13T01:58:00.068Z,927.42
2018-11-13T01:58:13.082Z,927.37
2018-11-13T01:58:25.627Z,927.35
2018-11-13T01:58:38.844Z,927.36
2018-11-13T01:58:51.883Z,927.38
2018-11-13T01:59:04.876Z,927.34
2018-11-13T01:59:17.929Z,927.35
2018-11-13T01:59:30.940Z,927.36
2018-11-13T01:59:43.493Z,927.37
2018-11-13T01:59:56.544Z,927.34
2018-11-13T02:00:08.170Z,927.34
2018-11-13T02:00:21.153Z,927.32
2018-11-13T02:00:34.178Z,927.36
2018-11-13T02:00:47.149Z,927.31
2018-11-13T02:00:59.732Z,927.28
2018-11-13T02:01:12.757Z,927.3
2018-11-13T02:01:25.746Z,927.31
2018-11-13T02:01:38.304Z,927.28
2018-11-13T02:01:50.385Z,927.28
2018-11-13T02:02:02.867Z,927.27
2018-11-13T02:02:15.416Z,927.23
2018-11-13T02:02:28.401Z,927.23
2018-11-13T02:02:41.372Z,927.29
2018-11-13T02:02:53.949Z,927.23
2018-11-13T02:03:06.988Z,927.24
2018-11-13T02:03:19.106Z,927.25
2018-11-13T02:03:32.112Z,927.27
2018-11-13T02:03:44.751Z,927.28
2018-11-13T02:03:56.822Z,927.23
2018-11-13T02:04:09.888Z,927.25
2018-11-13T02:04:22.445Z,927.25
2018-11-13T02:04:34.572Z,927.23
2018-11-13T02:04:47.538Z,927.2
2018-11-13T02:05:00.492Z,927.21
2018-11-13T02:05:13.050Z,927.2
2018-11-13T02:05:25.141Z,927.16
2018-11-13T02:05:38.257Z,927.2
2018-11-13T02:05:51.188Z,927.17
2018-11-13T02:06:03.688Z,927.18
2018-11-13T02:06:15.733Z,927.14
2018-11-13T02:06:28.287Z,927.18
2018-11-13T02:06:40.317Z,927.15
2018-11-13T02:06:52.865Z,927.15
2018-11-13T02:07:05.392Z,927.13
2018-11-13T02:07:17.901Z,927.14
2018-11-13T02:07:29.957Z,927.12
2018-11-13T02:07:42.451Z,927.11
2018-11-13T02:07:54.962Z,927.15
2018-11-13T02:08:07.511Z,927.13
2018-11-13T02:08:20.545Z,927.13
2018-11-13T02:08:33.064Z,927.1
2018-11-13T02:08:45.658Z,927.13
2018-11-13T02:08:58.196Z,927.11
2018-11-13T02:09:11.202Z,927.13
2018-11-13T02:09:23.772Z,927.09
2018-11-13T02:09:36.774Z,927.06
2018-11-13T02:09:48.837Z,927.07
2018-11-13T02:10:01.399Z,927.07
2018-11-13T02:10:13.960Z,927.08
2018-11-13T02:10:26.989Z,927.09
2018-11-13T02:10:40.853Z,927.04
2018-11-13T02:10:53.367Z,927.05
2018-11-13T02:11:05.950Z,927.07
2018-11-13T02:11:18.966Z,927.06
2018-11-13T02:11:31.993Z,927.07
2018-11-13T02:11:44.537Z,927.02
2018-11-13T02:11:57.581Z,926.99
2018-11-13T02:12:10.156Z,927.01
2018-11-13T02:12:22.251Z,926.98
2018-11-13T02:12:34.790Z,926.98
2018-11-13T02:12:47.810Z,926.99
2018-11-13T02:13:00.759Z,926.97
2018-11-13T02:13:12.857Z,926.97
2018-11-13T02:13:24.915Z,926.96
2018-11-13T02:13:37.917Z,927
2018-11-13T02:13:50.967Z,926.97
2018-11-13T02:14:03.034Z,926.99
2018-11-13T02:14:16.147Z,926.95
2018-11-13T02:14:28.661Z,926.95
2018-11-13T02:14:41.680Z,926.92
2018-11-13T02:14:53.754Z,926.94
2018-11-13T02:15:06.289Z,926.91
2018-11-13T02:15:18.362Z,926.96
2018-11-13T02:15:30.876Z,926.92
2018-11-13T02:15:43.766Z,926.91
2018-11-13T02:15:56.240Z,926.9
2018-11-13T02:16:08.783Z,926.87
2018-11-13T02:16:21.830Z,926.9
2018-11-13T02:16:34.363Z,926.88
2018-11-13T02:16:47.377Z,926.92
2018-11-13T02:16:59.918Z,926.83
2018-11-13T02:17:12.955Z,926.86
2018-11-13T02:17:25.021Z,926.84
2018-11-13T02:17:37.558Z,926.85
2018-11-13T02:17:50.586Z,926.86
2018-11-13T02:18:03.154Z,926.85
2018-11-13T02:18:14.758Z,926.84
2018-11-13T02:18:27.319Z,926.84
2018-11-13T02:18:40.339Z,926.85
2018-11-13T02:18:53.302Z,926.83
2018-11-13T02:19:05.372Z,926.8
2018-11-13T02:19:17.953Z,926.82
2018-11-13T02:19:30.567Z,926.82
2018-11-13T02:19:43.118Z,926.8
2018-11-13T02:19:55.170Z,926.82
2018-11-13T02:20:07.251Z,926.84
2018-11-13T02:20:19.754Z,926.82
2018-11-13T02:20:32.284Z,926.8
2018-11-13T02:20:45.307Z,926.81
2018-11-13T02:20:57.853Z,926.8
2018-11-13T02:21:09.512Z,926.86
2018-11-13T02:21:22.513Z,926.8
2018-11-13T02:21:35.041Z,926.84
2018-11-13T02:21:47.591Z,926.79
2018-11-13T02:22:00.649Z,926.79
2018-11-13T02:22:13.624Z,926.8
2018-11-13T02:22:26.619Z,926.79
2018-11-13T02:22:39.180Z,926.79
2018-11-13T02:22:51.678Z,926.8
2018-11-13T02:23:04.140Z,926.8
2018-11-13T02:23:17.081Z,926.81
2018-11-13T02:23:30.072Z,926.81
2018-11-13T02:23:43.043Z,926.83
2018-11-13T02:23:55.536Z,926.8
2018-11-13T02:24:08.069Z,926.84
2018-11-13T02:24:20.591Z,926.79
2018-11-13T02:24:33.150Z,926.81
2018-11-13T02:24:45.610Z,926.8
2018-11-13T02:24:58.567Z,926.78
2018-11-13T02:25:10.655Z,926.84
2018-11-13T02:25:23.175Z,926.83
2018-11-13T02:25:35.739Z,926.85
2018-11-13T02:25:49.205Z,926.83
2018-11-13T02:26:02.129Z,926.83
2018-11-13T02:26:14.150Z,926.82
2018-11-13T02:26:26.219Z,926.84
2018-11-13T02:26:39.240Z,926.78
2018-11-13T02:26:52.142Z,926.82
2018-11-13T02:27:05.204Z,926.84
2018-11-13T02:27:18.189Z,926.82
2018-11-13T02:27:31.130Z,926.82
2018-11-13T02:27:43.652Z,926.87
2018-11-13T02:27:56.645Z,926.85
2018-11-13T02:28:09.154Z,926.84
2018-11-13T02:28:22.165Z,926.83
2018-11-13T02:28:34.716Z,926.8
2018-11-13T02:28:47.265Z,926.85
2018-11-13T02:28:59.350Z,926.83
2018-11-13T02:29:11.860Z,926.8
2018-11-13T02:29:24.390Z,926.82
2018-11-13T02:29:37.390Z,926.86
2018-11-13T02:29:50.358Z,926.86
2018-11-13T02:30:02.019Z,926.83
2018-11-13T02:30:14.095Z,926.84
2018-11-13T02:30:26.656Z,926.8
2018-11-13T02:30:39.186Z,926.81
2018-11-13T02:30:52.198Z,926.81
2018-11-13T02:31:05.195Z,926.86
2018-11-13T02:31:18.200Z,926.86
2018-11-13T02:31:29.825Z,926.87
2018-11-13T02:31:42.879Z,926.86
2018-11-13T02:31:55.903Z,926.85
2018-11-13T02:32:08.362Z,926.86
2018-11-13T02:32:21.411Z,926.88
2018-11-13T02:32:34.431Z,926.86
2018-11-13T02:32:46.964Z,926.88
2018-11-13T02:32:59.969Z,926.9
2018-11-13T02:33:12.532Z,926.94
2018-11-13T02:33:25.584Z,926.89
2018-11-13T02:33:38.586Z,926.93
2018-11-13T02:33:51.085Z,926.91
2018-11-13T02:34:04.017Z,926.95
2018-11-13T02:34:16.998Z,926.87
2018-11-13T02:34:29.950Z,926.86
2018-11-13T02:34:42.435Z,926.84
2018-11-13T02:34:55.449Z,926.88
2018-11-13T02:35:08.524Z,926.85
2018-11-13T02:35:22.005Z,926.89
2018-11-13T02:35:35.651Z,926.86
2018-11-13T02:35:48.751Z,926.88
2018-11-13T02:36:01.346Z,926.85
2018-11-13T02:36:14.285Z,926.84
2018-11-13T02:36:27.257Z,926.88
2018-11-13T02:36:39.819Z,926.86
2018-11-13T02:36:52.822Z,926.82
2018-11-13T02:37:05.826Z,926.86
2018-11-13T02:37:18.422Z,926.82
2018-11-13T02:37:30.920Z,926.83
2018-11-13T02:37:43.888Z,926.89
2018-11-13T02:37:56.908Z,926.84
2018-11-13T02:38:09.456Z,926.85
2018-11-13T02:38:22.521Z,926.85
2018-11-13T02:38:35.508Z,926.82